sensor_id;sensor_type;location;lat;lon;timestamp;P1;durP1;ratioP1;P2;durP2;ratioP2
61962;SDS011;47927;42.646;23.096;2022-12-22T00:01:14;8.65;;;3.45;;
61962;SDS011;47927;42.646;23.096;2022-12-22T00:03:59;5.63;;;2.95;;
61962;SDS011;47927;42.646;23.096;2022-12-22T00:06:42;6.43;;;3.33;;
61962;SDS011;47927;42.646;23.096;2022-12-22T00:09:26;7.18;;;3.17;;
61962;SDS011;47927;42.646;23.096;2022-12-22T00:12:11;5.40;;;3.33;;
61962;SDS011;47927;42.646;23.096;2022-12-22T00:14:57;8.60;;;2.92;;
61962;SDS011;47927;42.646;23.096;2022-12-22T00:17:42;6.88;;;3.40;;
61962;SDS011;47927;42.646;23.096;2022-12-22T00:20:27;5.93;;;2.25;;
61962;SDS011;47927;42.646;23.096;2022-12-22T00:23:11;3.88;;;2.15;;
61962;SDS011;47927;42.646;23.096;2022-12-22T00:25:55;4.97;;;2.28;;
61962;SDS011;47927;42.646;23.096;2022-12-22T00:28:41;6.80;;;2.25;;
61962;SDS011;47927;42.646;23.096;2022-12-22T00:31:25;7.70;;;2.72;;
61962;SDS011;47927;42.646;23.096;2022-12-22T00:34:12;15.90;;;2.90;;
61962;SDS011;47927;42.646;23.096;2022-12-22T00:36:59;4.85;;;2.28;;
61962;SDS011;47927;42.646;23.096;2022-12-22T00:39:42;5.03;;;2.22;;
61962;SDS011;47927;42.646;23.096;2022-12-22T00:42:27;5.28;;;2.90;;
61962;SDS011;47927;42.646;23.096;2022-12-22T00:45:10;7.60;;;3.78;;
61962;SDS011;47927;42.646;23.096;2022-12-22T00:47:55;12.82;;;3.97;;
61962;SDS011;47927;42.646;23.096;2022-12-22T00:50:38;5.28;;;3.03;;
61962;SDS011;47927;42.646;23.096;2022-12-22T00:53:23;8.55;;;3.78;;
61962;SDS011;47927;42.646;23.096;2022-12-22T00:56:07;8.55;;;3.50;;
61962;SDS011;47927;42.646;23.096;2022-12-22T00:58:52;14.60;;;3.58;;
61962;SDS011;47927;42.646;23.096;2022-12-22T01:01:38;9.25;;;2.90;;
61962;SDS011;47927;42.646;23.096;2022-12-22T01:04:22;4.47;;;2.20;;
61962;SDS011;47927;42.646;23.096;2022-12-22T01:07:14;5.55;;;2.33;;
61962;SDS011;47927;42.646;23.096;2022-12-22T01:10:01;5.53;;;3.00;;
61962;SDS011;47927;42.646;23.096;2022-12-22T01:12:45;4.32;;;2.08;;
61962;SDS011;47927;42.646;23.096;2022-12-22T01:15:30;6.65;;;3.75;;
61962;SDS011;47927;42.646;23.096;2022-12-22T01:18:14;6.30;;;2.70;;
61962;SDS011;47927;42.646;23.096;2022-12-22T01:20:59;5.38;;;2.75;;
61962;SDS011;47927;42.646;23.096;2022-12-22T01:23:44;3.97;;;1.85;;
61962;SDS011;47927;42.646;23.096;2022-12-22T01:26:29;6.28;;;3.38;;
61962;SDS011;47927;42.646;23.096;2022-12-22T01:29:14;8.57;;;3.83;;
61962;SDS011;47927;42.646;23.096;2022-12-22T01:31:58;7.03;;;3.30;;
61962;SDS011;47927;42.646;23.096;2022-12-22T01:34:42;5.38;;;2.60;;
61962;SDS011;47927;42.646;23.096;2022-12-22T01:37:26;5.60;;;2.55;;
61962;SDS011;47927;42.646;23.096;2022-12-22T01:40:20;6.30;;;2.78;;
61962;SDS011;47927;42.646;23.096;2022-12-22T01:43:14;13.60;;;3.47;;
61962;SDS011;47927;42.646;23.096;2022-12-22T01:46:16;5.35;;;2.05;;
61962;SDS011;47927;42.646;23.096;2022-12-22T01:49:01;4.15;;;1.65;;
61962;SDS011;47927;42.646;23.096;2022-12-22T01:51:46;12.40;;;1.80;;
61962;SDS011;47927;42.646;23.096;2022-12-22T01:54:30;7.13;;;2.38;;
61962;SDS011;47927;42.646;23.096;2022-12-22T01:57:14;7.07;;;2.58;;
61962;SDS011;47927;42.646;23.096;2022-12-22T01:59:58;13.20;;;2.80;;
61962;SDS011;47927;42.646;23.096;2022-12-22T02:02:43;8.20;;;3.20;;
61962;SDS011;47927;42.646;23.096;2022-12-22T02:05:26;5.72;;;3.20;;
61962;SDS011;47927;42.646;23.096;2022-12-22T02:08:16;9.30;;;2.90;;
61962;SDS011;47927;42.646;23.096;2022-12-22T02:11:12;8.18;;;3.45;;
61962;SDS011;47927;42.646;23.096;2022-12-22T02:17:06;6.32;;;2.13;;
61962;SDS011;47927;42.646;23.096;2022-12-22T02:29:19;6.65;;;2.80;;
61962;SDS011;47927;42.646;23.096;2022-12-22T02:34:53;4.18;;;2.35;;
61962;SDS011;47927;42.646;23.096;2022-12-22T02:46:33;4.32;;;1.90;;
61962;SDS011;47927;42.646;23.096;2022-12-22T02:49:28;4.93;;;2.25;;
61962;SDS011;47927;42.646;23.096;2022-12-22T02:52:27;6.88;;;2.17;;
61962;SDS011;47927;42.646;23.096;2022-12-22T02:55:17;6.55;;;1.85;;
61962;SDS011;47927;42.646;23.096;2022-12-22T02:58:02;6.78;;;2.50;;
61962;SDS011;47927;42.646;23.096;2022-12-22T03:00:46;6.82;;;2.30;;
61962;SDS011;47927;42.646;23.096;2022-12-22T03:03:30;9.30;;;4.13;;
61962;SDS011;47927;42.646;23.096;2022-12-22T03:06:14;7.95;;;3.15;;
61962;SDS011;47927;42.646;23.096;2022-12-22T03:08:59;7.80;;;3.13;;
61962;SDS011;47927;42.646;23.096;2022-12-22T03:11:44;5.28;;;2.80;;
61962;SDS011;47927;42.646;23.096;2022-12-22T03:14:28;4.38;;;2.35;;
61962;SDS011;47927;42.646;23.096;2022-12-22T03:17:12;9.43;;;3.15;;
61962;SDS011;47927;42.646;23.096;2022-12-22T03:19:55;9.32;;;2.88;;
61962;SDS011;47927;42.646;23.096;2022-12-22T03:22:40;7.50;;;3.05;;
61962;SDS011;47927;42.646;23.096;2022-12-22T03:25:24;7.55;;;2.75;;
61962;SDS011;47927;42.646;23.096;2022-12-22T03:28:08;6.88;;;2.53;;
61962;SDS011;47927;42.646;23.096;2022-12-22T03:30:34;6.70;;;3.22;;
61962;SDS011;47927;42.646;23.096;2022-12-22T03:33:00;8.77;;;3.33;;
61962;SDS011;47927;42.646;23.096;2022-12-22T03:35:25;8.50;;;2.65;;
61962;SDS011;47927;42.646;23.096;2022-12-22T03:37:51;12.88;;;3.35;;
61962;SDS011;47927;42.646;23.096;2022-12-22T03:40:17;6.10;;;2.13;;
61962;SDS011;47927;42.646;23.096;2022-12-22T03:42:42;6.75;;;2.60;;
61962;SDS011;47927;42.646;23.096;2022-12-22T03:45:26;8.98;;;2.40;;
61962;SDS011;47927;42.646;23.096;2022-12-22T03:48:11;9.70;;;3.40;;
61962;SDS011;47927;42.646;23.096;2022-12-22T03:50:36;6.90;;;3.70;;
61962;SDS011;47927;42.646;23.096;2022-12-22T03:53:02;6.55;;;3.13;;
61962;SDS011;47927;42.646;23.096;2022-12-22T03:55:29;8.25;;;3.58;;
61962;SDS011;47927;42.646;23.096;2022-12-22T03:57:54;13.50;;;4.30;;
61962;SDS011;47927;42.646;23.096;2022-12-22T04:00:20;7.10;;;2.90;;
61962;SDS011;47927;42.646;23.096;2022-12-22T04:02:46;6.53;;;2.75;;
61962;SDS011;47927;42.646;23.096;2022-12-22T04:05:12;10.07;;;3.60;;
61962;SDS011;47927;42.646;23.096;2022-12-22T04:07:37;8.65;;;2.65;;
61962;SDS011;47927;42.646;23.096;2022-12-22T04:10:03;6.70;;;2.95;;
61962;SDS011;47927;42.646;23.096;2022-12-22T04:12:50;22.75;;;4.90;;
61962;SDS011;47927;42.646;23.096;2022-12-22T04:15:19;7.28;;;3.25;;
61962;SDS011;47927;42.646;23.096;2022-12-22T04:17:49;11.63;;;3.47;;
61962;SDS011;47927;42.646;23.096;2022-12-22T04:20:14;7.30;;;3.42;;
61962;SDS011;47927;42.646;23.096;2022-12-22T04:22:40;8.95;;;2.80;;
61962;SDS011;47927;42.646;23.096;2022-12-22T04:25:06;9.07;;;3.58;;
61962;SDS011;47927;42.646;23.096;2022-12-22T04:27:32;8.23;;;3.55;;
61962;SDS011;47927;42.646;23.096;2022-12-22T04:29:57;7.07;;;3.42;;
61962;SDS011;47927;42.646;23.096;2022-12-22T04:32:23;23.45;;;3.20;;
61962;SDS011;47927;42.646;23.096;2022-12-22T04:34:49;6.13;;;2.75;;
61962;SDS011;47927;42.646;23.096;2022-12-22T04:37:14;7.63;;;2.33;;
61962;SDS011;47927;42.646;23.096;2022-12-22T04:39:40;5.38;;;2.67;;
61962;SDS011;47927;42.646;23.096;2022-12-22T04:42:05;7.72;;;3.65;;
61962;SDS011;47927;42.646;23.096;2022-12-22T04:44:31;11.00;;;3.38;;
61962;SDS011;47927;42.646;23.096;2022-12-22T04:46:56;8.25;;;3.67;;
61962;SDS011;47927;42.646;23.096;2022-12-22T04:49:21;8.32;;;3.15;;
61962;SDS011;47927;42.646;23.096;2022-12-22T04:51:47;8.40;;;3.08;;
61962;SDS011;47927;42.646;23.096;2022-12-22T04:54:13;5.80;;;2.08;;
61962;SDS011;47927;42.646;23.096;2022-12-22T04:56:38;9.93;;;3.25;;
61962;SDS011;47927;42.646;23.096;2022-12-22T04:59:04;9.10;;;3.08;;
61962;SDS011;47927;42.646;23.096;2022-12-22T05:01:29;8.85;;;3.15;;
61962;SDS011;47927;42.646;23.096;2022-12-22T05:03:55;7.57;;;3.28;;
61962;SDS011;47927;42.646;23.096;2022-12-22T05:06:20;13.43;;;3.47;;
61962;SDS011;47927;42.646;23.096;2022-12-22T05:08:46;10.38;;;4.78;;
61962;SDS011;47927;42.646;23.096;2022-12-22T05:11:11;12.32;;;4.10;;
61962;SDS011;47927;42.646;23.096;2022-12-22T05:13:37;13.80;;;4.32;;
61962;SDS011;47927;42.646;23.096;2022-12-22T05:16:03;7.60;;;3.30;;
61962;SDS011;47927;42.646;23.096;2022-12-22T05:18:31;4.72;;;2.22;;
61962;SDS011;47927;42.646;23.096;2022-12-22T05:20:57;8.60;;;3.75;;
61962;SDS011;47927;42.646;23.096;2022-12-22T05:23:23;13.93;;;3.45;;
61962;SDS011;47927;42.646;23.096;2022-12-22T05:25:48;18.75;;;3.65;;
61962;SDS011;47927;42.646;23.096;2022-12-22T05:28:14;8.40;;;4.28;;
61962;SDS011;47927;42.646;23.096;2022-12-22T05:30:39;7.95;;;3.88;;
61962;SDS011;47927;42.646;23.096;2022-12-22T05:33:05;8.02;;;3.33;;
61962;SDS011;47927;42.646;23.096;2022-12-22T05:35:31;10.93;;;4.18;;
61962;SDS011;47927;42.646;23.096;2022-12-22T05:37:56;15.98;;;3.88;;
61962;SDS011;47927;42.646;23.096;2022-12-22T05:40:22;9.73;;;4.35;;
61962;SDS011;47927;42.646;23.096;2022-12-22T05:42:47;6.97;;;4.22;;
61962;SDS011;47927;42.646;23.096;2022-12-22T05:45:14;14.75;;;4.60;;
61962;SDS011;47927;42.646;23.096;2022-12-22T05:50:10;8.13;;;4.60;;
61962;SDS011;47927;42.646;23.096;2022-12-22T05:52:37;12.50;;;5.93;;
61962;SDS011;47927;42.646;23.096;2022-12-22T05:55:03;10.63;;;5.47;;
61962;SDS011;47927;42.646;23.096;2022-12-22T05:57:29;9.57;;;5.32;;
61962;SDS011;47927;42.646;23.096;2022-12-22T05:59:55;17.98;;;5.68;;
61962;SDS011;47927;42.646;23.096;2022-12-22T06:02:21;12.63;;;6.50;;
61962;SDS011;47927;42.646;23.096;2022-12-22T06:04:46;18.67;;;7.43;;
61962;SDS011;47927;42.646;23.096;2022-12-22T06:07:12;12.55;;;6.47;;
61962;SDS011;47927;42.646;23.096;2022-12-22T06:09:37;16.15;;;6.80;;
61962;SDS011;47927;42.646;23.096;2022-12-22T06:12:03;20.63;;;5.38;;
61962;SDS011;47927;42.646;23.096;2022-12-22T06:14:29;23.88;;;6.80;;
61962;SDS011;47927;42.646;23.096;2022-12-22T06:16:54;23.52;;;6.55;;
61962;SDS011;47927;42.646;23.096;2022-12-22T06:19:20;25.00;;;12.32;;
61962;SDS011;47927;42.646;23.096;2022-12-22T06:21:45;24.92;;;13.18;;
61962;SDS011;47927;42.646;23.096;2022-12-22T06:24:11;23.73;;;9.95;;
61962;SDS011;47927;42.646;23.096;2022-12-22T06:26:36;22.05;;;10.50;;
61962;SDS011;47927;42.646;23.096;2022-12-22T06:29:02;21.70;;;11.32;;
61962;SDS011;47927;42.646;23.096;2022-12-22T06:31:27;20.35;;;10.43;;
61962;SDS011;47927;42.646;23.096;2022-12-22T06:33:53;25.50;;;10.15;;
61962;SDS011;47927;42.646;23.096;2022-12-22T06:36:18;14.68;;;7.50;;
61962;SDS011;47927;42.646;23.096;2022-12-22T06:38:44;14.70;;;8.73;;
61962;SDS011;47927;42.646;23.096;2022-12-22T06:41:09;23.20;;;11.43;;
61962;SDS011;47927;42.646;23.096;2022-12-22T06:43:35;21.13;;;12.07;;
61962;SDS011;47927;42.646;23.096;2022-12-22T06:46:00;16.58;;;11.10;;
61962;SDS011;47927;42.646;23.096;2022-12-22T06:48:26;16.25;;;11.45;;
61962;SDS011;47927;42.646;23.096;2022-12-22T06:50:55;17.35;;;11.73;;
61962;SDS011;47927;42.646;23.096;2022-12-22T06:53:23;27.48;;;12.15;;
61962;SDS011;47927;42.646;23.096;2022-12-22T06:55:48;17.27;;;9.98;;
61962;SDS011;47927;42.646;23.096;2022-12-22T06:58:14;16.08;;;10.15;;
61962;SDS011;47927;42.646;23.096;2022-12-22T07:00:39;17.60;;;9.40;;
61962;SDS011;47927;42.646;23.096;2022-12-22T07:03:05;21.75;;;9.63;;
61962;SDS011;47927;42.646;23.096;2022-12-22T07:05:30;17.25;;;9.35;;
61962;SDS011;47927;42.646;23.096;2022-12-22T07:07:56;13.57;;;8.15;;
61962;SDS011;47927;42.646;23.096;2022-12-22T07:10:21;16.35;;;8.32;;
61962;SDS011;47927;42.646;23.096;2022-12-22T07:13:07;18.85;;;8.70;;
61962;SDS011;47927;42.646;23.096;2022-12-22T07:15:44;18.20;;;9.50;;
61962;SDS011;47927;42.646;23.096;2022-12-22T07:18:12;18.58;;;9.45;;
61962;SDS011;47927;42.646;23.096;2022-12-22T07:20:38;23.52;;;9.75;;
61962;SDS011;47927;42.646;23.096;2022-12-22T07:23:04;30.17;;;11.02;;
61962;SDS011;47927;42.646;23.096;2022-12-22T07:25:29;16.15;;;9.90;;
61962;SDS011;47927;42.646;23.096;2022-12-22T07:27:55;19.63;;;10.15;;
61962;SDS011;47927;42.646;23.096;2022-12-22T07:30:20;22.33;;;10.52;;
61962;SDS011;47927;42.646;23.096;2022-12-22T07:32:46;27.10;;;10.75;;
61962;SDS011;47927;42.646;23.096;2022-12-22T07:35:11;17.70;;;10.18;;
61962;SDS011;47927;42.646;23.096;2022-12-22T07:37:37;17.50;;;10.38;;
61962;SDS011;47927;42.646;23.096;2022-12-22T07:40:02;18.10;;;9.93;;
61962;SDS011;47927;42.646;23.096;2022-12-22T07:42:28;24.75;;;10.35;;
61962;SDS011;47927;42.646;23.096;2022-12-22T07:45:09;21.83;;;10.10;;
61962;SDS011;47927;42.646;23.096;2022-12-22T07:50:04;17.00;;;9.32;;
61962;SDS011;47927;42.646;23.096;2022-12-22T07:52:50;21.80;;;10.43;;
61962;SDS011;47927;42.646;23.096;2022-12-22T07:55:17;17.52;;;11.10;;
61962;SDS011;47927;42.646;23.096;2022-12-22T07:57:43;16.83;;;10.43;;
61962;SDS011;47927;42.646;23.096;2022-12-22T08:00:09;20.92;;;10.40;;
61962;SDS011;47927;42.646;23.096;2022-12-22T08:02:38;21.42;;;10.77;;
61962;SDS011;47927;42.646;23.096;2022-12-22T08:05:04;20.48;;;10.68;;
61962;SDS011;47927;42.646;23.096;2022-12-22T08:07:31;18.48;;;12.15;;
61962;SDS011;47927;42.646;23.096;2022-12-22T08:09:59;19.50;;;10.70;;
61962;SDS011;47927;42.646;23.096;2022-12-22T08:12:25;22.80;;;11.18;;
61962;SDS011;47927;42.646;23.096;2022-12-22T08:14:50;18.75;;;10.65;;
61962;SDS011;47927;42.646;23.096;2022-12-22T08:17:16;24.05;;;11.93;;
61962;SDS011;47927;42.646;23.096;2022-12-22T08:19:41;20.08;;;11.00;;
61962;SDS011;47927;42.646;23.096;2022-12-22T08:22:08;18.02;;;11.18;;
61962;SDS011;47927;42.646;23.096;2022-12-22T08:24:34;20.38;;;11.35;;
61962;SDS011;47927;42.646;23.096;2022-12-22T08:27:04;21.02;;;11.20;;
61962;SDS011;47927;42.646;23.096;2022-12-22T08:29:47;21.98;;;10.95;;
61962;SDS011;47927;42.646;23.096;2022-12-22T08:32:15;22.58;;;10.73;;
61962;SDS011;47927;42.646;23.096;2022-12-22T08:34:42;18.83;;;10.18;;
61962;SDS011;47927;42.646;23.096;2022-12-22T08:37:09;17.60;;;10.50;;
61962;SDS011;47927;42.646;23.096;2022-12-22T08:39:39;32.92;;;20.60;;
61962;SDS011;47927;42.646;23.096;2022-12-22T08:42:07;17.42;;;10.48;;
61962;SDS011;47927;42.646;23.096;2022-12-22T08:44:35;19.65;;;10.23;;
61962;SDS011;47927;42.646;23.096;2022-12-22T08:47:03;24.98;;;11.48;;
61962;SDS011;47927;42.646;23.096;2022-12-22T08:49:29;19.83;;;10.85;;
61962;SDS011;47927;42.646;23.096;2022-12-22T08:51:55;22.13;;;10.68;;
61962;SDS011;47927;42.646;23.096;2022-12-22T08:54:21;19.15;;;10.38;;
61962;SDS011;47927;42.646;23.096;2022-12-22T08:56:47;20.48;;;9.98;;
61962;SDS011;47927;42.646;23.096;2022-12-22T08:59:14;19.75;;;9.48;;
61962;SDS011;47927;42.646;23.096;2022-12-22T09:01:41;23.27;;;12.10;;
61962;SDS011;47927;42.646;23.096;2022-12-22T09:04:08;18.63;;;9.45;;
61962;SDS011;47927;42.646;23.096;2022-12-22T09:06:37;18.45;;;10.02;;
61962;SDS011;47927;42.646;23.096;2022-12-22T09:09:03;21.55;;;10.52;;
61962;SDS011;47927;42.646;23.096;2022-12-22T09:11:30;23.90;;;10.65;;
61962;SDS011;47927;42.646;23.096;2022-12-22T09:13:57;21.55;;;11.93;;
61962;SDS011;47927;42.646;23.096;2022-12-22T09:16:25;21.15;;;9.95;;
61962;SDS011;47927;42.646;23.096;2022-12-22T09:18:52;16.35;;;9.32;;
61962;SDS011;47927;42.646;23.096;2022-12-22T09:21:18;20.00;;;11.13;;
61962;SDS011;47927;42.646;23.096;2022-12-22T09:23:43;16.92;;;9.82;;
61962;SDS011;47927;42.646;23.096;2022-12-22T09:26:10;15.90;;;9.73;;
61962;SDS011;47927;42.646;23.096;2022-12-22T09:28:38;15.43;;;9.53;;
61962;SDS011;47927;42.646;23.096;2022-12-22T09:31:04;17.48;;;9.18;;
61962;SDS011;47927;42.646;23.096;2022-12-22T09:33:30;17.98;;;9.40;;
61962;SDS011;47927;42.646;23.096;2022-12-22T09:35:56;21.20;;;9.45;;
61962;SDS011;47927;42.646;23.096;2022-12-22T09:38:34;20.40;;;9.60;;
61962;SDS011;47927;42.646;23.096;2022-12-22T09:41:12;21.77;;;9.48;;
61962;SDS011;47927;42.646;23.096;2022-12-22T09:43:48;15.45;;;9.20;;
61962;SDS011;47927;42.646;23.096;2022-12-22T09:46:23;13.95;;;9.82;;
61962;SDS011;47927;42.646;23.096;2022-12-22T09:48:51;19.65;;;10.45;;
61962;SDS011;47927;42.646;23.096;2022-12-22T09:51:18;19.67;;;10.77;;
61962;SDS011;47927;42.646;23.096;2022-12-22T09:53:44;22.40;;;11.85;;
61962;SDS011;47927;42.646;23.096;2022-12-22T09:56:15;18.42;;;11.75;;
61962;SDS011;47927;42.646;23.096;2022-12-22T09:58:42;21.45;;;13.55;;
61962;SDS011;47927;42.646;23.096;2022-12-22T10:06:33;22.90;;;14.90;;
61962;SDS011;47927;42.646;23.096;2022-12-22T10:09:02;22.85;;;13.93;;
61962;SDS011;47927;42.646;23.096;2022-12-22T10:11:54;29.02;;;14.68;;
61962;SDS011;47927;42.646;23.096;2022-12-22T10:14:38;23.27;;;13.70;;
61962;SDS011;47927;42.646;23.096;2022-12-22T10:17:17;23.48;;;13.43;;
61962;SDS011;47927;42.646;23.096;2022-12-22T10:19:46;20.80;;;12.27;;
61962;SDS011;47927;42.646;23.096;2022-12-22T10:22:24;24.45;;;12.80;;
61962;SDS011;47927;42.646;23.096;2022-12-22T10:24:53;21.73;;;12.73;;
61962;SDS011;47927;42.646;23.096;2022-12-22T10:27:22;22.33;;;11.75;;
61962;SDS011;47927;42.646;23.096;2022-12-22T10:29:51;18.30;;;10.02;;
61962;SDS011;47927;42.646;23.096;2022-12-22T10:32:18;21.00;;;10.50;;
61962;SDS011;47927;42.646;23.096;2022-12-22T10:35:04;19.50;;;10.80;;
61962;SDS011;47927;42.646;23.096;2022-12-22T10:37:31;17.73;;;9.80;;
61962;SDS011;47927;42.646;23.096;2022-12-22T10:40:15;19.73;;;9.23;;
61962;SDS011;47927;42.646;23.096;2022-12-22T10:42:50;16.17;;;9.45;;
61962;SDS011;47927;42.646;23.096;2022-12-22T10:45:23;19.00;;;10.18;;
61962;SDS011;47927;42.646;23.096;2022-12-22T10:47:52;18.70;;;9.57;;
61962;SDS011;47927;42.646;23.096;2022-12-22T10:50:21;17.00;;;10.38;;
61962;SDS011;47927;42.646;23.096;2022-12-22T10:52:54;17.40;;;9.85;;
61962;SDS011;47927;42.646;23.096;2022-12-22T10:55:25;15.23;;;9.20;;
61962;SDS011;47927;42.646;23.096;2022-12-22T11:00:59;18.30;;;10.55;;
61962;SDS011;47927;42.646;23.096;2022-12-22T11:03:28;18.95;;;9.52;;
61962;SDS011;47927;42.646;23.096;2022-12-22T11:05:55;18.42;;;11.95;;
61962;SDS011;47927;42.646;23.096;2022-12-22T11:08:21;16.55;;;9.82;;
61962;SDS011;47927;42.646;23.096;2022-12-22T11:10:54;22.85;;;9.32;;
61962;SDS011;47927;42.646;23.096;2022-12-22T11:13:46;13.27;;;8.32;;
61962;SDS011;47927;42.646;23.096;2022-12-22T11:16:23;15.63;;;7.30;;
61962;SDS011;47927;42.646;23.096;2022-12-22T11:21:48;14.88;;;8.27;;
61962;SDS011;47927;42.646;23.096;2022-12-22T11:38:00;13.25;;;7.25;;
61962;SDS011;47927;42.646;23.096;2022-12-22T11:40:30;20.00;;;8.25;;
61962;SDS011;47927;42.646;23.096;2022-12-22T11:51:03;13.82;;;7.97;;
61962;SDS011;47927;42.646;23.096;2022-12-22T11:56:17;20.92;;;9.75;;
61962;SDS011;47927;42.646;23.096;2022-12-22T12:01:22;19.17;;;10.20;;
61962;SDS011;47927;42.646;23.096;2022-12-22T12:06:25;21.92;;;11.65;;
61962;SDS011;47927;42.646;23.096;2022-12-22T12:21:48;25.40;;;10.82;;
61962;SDS011;47927;42.646;23.096;2022-12-22T12:27:23;24.98;;;10.30;;
61962;SDS011;47927;42.646;23.096;2022-12-22T12:30:21;23.15;;;9.10;;
61962;SDS011;47927;42.646;23.096;2022-12-22T12:33:02;17.45;;;8.93;;
61962;SDS011;47927;42.646;23.096;2022-12-22T12:35:33;20.80;;;10.23;;
61962;SDS011;47927;42.646;23.096;2022-12-22T12:41:40;20.35;;;10.68;;
61962;SDS011;47927;42.646;23.096;2022-12-22T12:44:13;22.60;;;11.00;;
61962;SDS011;47927;42.646;23.096;2022-12-22T12:46:53;24.48;;;11.00;;
61962;SDS011;47927;42.646;23.096;2022-12-22T12:51:59;20.98;;;10.93;;
61962;SDS011;47927;42.646;23.096;2022-12-22T13:03:02;24.23;;;10.63;;
61962;SDS011;47927;42.646;23.096;2022-12-22T13:05:31;25.27;;;10.85;;
61962;SDS011;47927;42.646;23.096;2022-12-22T13:31:50;23.27;;;9.73;;
61962;SDS011;47927;42.646;23.096;2022-12-22T13:36:47;18.38;;;9.73;;
61962;SDS011;47927;42.646;23.096;2022-12-22T13:39:15;18.95;;;9.23;;
61962;SDS011;47927;42.646;23.096;2022-12-22T13:41:41;17.77;;;10.02;;
61962;SDS011;47927;42.646;23.096;2022-12-22T13:44:12;19.90;;;9.77;;
61962;SDS011;47927;42.646;23.096;2022-12-22T13:46:41;23.77;;;9.52;;
61962;SDS011;47927;42.646;23.096;2022-12-22T13:49:09;18.02;;;8.70;;
61962;SDS011;47927;42.646;23.096;2022-12-22T13:51:39;18.80;;;9.65;;
61962;SDS011;47927;42.646;23.096;2022-12-22T13:54:14;22.02;;;9.80;;
61962;SDS011;47927;42.646;23.096;2022-12-22T13:56:45;20.52;;;9.55;;
61962;SDS011;47927;42.646;23.096;2022-12-22T13:59:22;20.27;;;8.75;;
61962;SDS011;47927;42.646;23.096;2022-12-22T14:01:57;17.63;;;7.82;;
61962;SDS011;47927;42.646;23.096;2022-12-22T14:04:28;21.90;;;8.82;;
61962;SDS011;47927;42.646;23.096;2022-12-22T14:06:55;17.17;;;8.63;;
61962;SDS011;47927;42.646;23.096;2022-12-22T14:09:22;17.90;;;7.75;;
61962;SDS011;47927;42.646;23.096;2022-12-22T14:14:18;15.13;;;8.75;;
61962;SDS011;47927;42.646;23.096;2022-12-22T14:16:47;18.10;;;9.25;;
61962;SDS011;47927;42.646;23.096;2022-12-22T14:19:15;15.57;;;8.20;;
61962;SDS011;47927;42.646;23.096;2022-12-22T14:21:42;21.83;;;9.00;;
61962;SDS011;47927;42.646;23.096;2022-12-22T14:24:13;19.08;;;8.60;;
61962;SDS011;47927;42.646;23.096;2022-12-22T14:26:43;16.33;;;8.23;;
61962;SDS011;47927;42.646;23.096;2022-12-22T14:29:13;19.83;;;8.40;;
61962;SDS011;47927;42.646;23.096;2022-12-22T14:31:49;20.20;;;9.80;;
61962;SDS011;47927;42.646;23.096;2022-12-22T14:34:27;20.20;;;8.52;;
61962;SDS011;47927;42.646;23.096;2022-12-22T14:36:57;17.23;;;8.65;;
61962;SDS011;47927;42.646;23.096;2022-12-22T14:39:24;17.30;;;7.43;;
61962;SDS011;47927;42.646;23.096;2022-12-22T14:42:02;10.73;;;6.35;;
61962;SDS011;47927;42.646;23.096;2022-12-22T14:44:31;17.05;;;7.03;;
61962;SDS011;47927;42.646;23.096;2022-12-22T14:52:25;11.65;;;5.38;;
61962;SDS011;47927;42.646;23.096;2022-12-22T15:00:44;10.30;;;4.97;;
61962;SDS011;47927;42.646;23.096;2022-12-22T15:03:26;14.27;;;5.20;;
61962;SDS011;47927;42.646;23.096;2022-12-22T15:05:53;9.65;;;5.20;;
61962;SDS011;47927;42.646;23.096;2022-12-22T15:08:35;16.55;;;6.47;;
61962;SDS011;47927;42.646;23.096;2022-12-22T15:11:02;11.50;;;5.50;;
61962;SDS011;47927;42.646;23.096;2022-12-22T15:13:27;9.20;;;4.65;;
61962;SDS011;47927;42.646;23.096;2022-12-22T15:15:54;9.90;;;4.97;;
61962;SDS011;47927;42.646;23.096;2022-12-22T15:18:24;10.63;;;5.22;;
61962;SDS011;47927;42.646;23.096;2022-12-22T15:20:55;12.27;;;4.72;;
61962;SDS011;47927;42.646;23.096;2022-12-22T15:23:21;12.32;;;4.72;;
61962;SDS011;47927;42.646;23.096;2022-12-22T15:25:48;8.95;;;4.13;;
61962;SDS011;47927;42.646;23.096;2022-12-22T15:28:14;7.97;;;4.78;;
61962;SDS011;47927;42.646;23.096;2022-12-22T15:30:39;16.67;;;4.70;;
61962;SDS011;47927;42.646;23.096;2022-12-22T15:33:12;11.63;;;4.20;;
61962;SDS011;47927;42.646;23.096;2022-12-22T15:35:40;8.13;;;4.10;;
61962;SDS011;47927;42.646;23.096;2022-12-22T15:38:11;8.60;;;3.28;;
61962;SDS011;47927;42.646;23.096;2022-12-22T15:40:38;7.57;;;4.05;;
61962;SDS011;47927;42.646;23.096;2022-12-22T15:43:04;10.38;;;4.60;;
61962;SDS011;47927;42.646;23.096;2022-12-22T15:45:29;8.73;;;3.97;;
61962;SDS011;47927;42.646;23.096;2022-12-22T15:47:55;7.70;;;3.85;;
61962;SDS011;47927;42.646;23.096;2022-12-22T15:50:22;8.35;;;4.07;;
61962;SDS011;47927;42.646;23.096;2022-12-22T15:52:52;11.07;;;5.35;;
61962;SDS011;47927;42.646;23.096;2022-12-22T15:55:19;9.55;;;4.43;;
61962;SDS011;47927;42.646;23.096;2022-12-22T15:57:46;11.70;;;5.05;;
61962;SDS011;47927;42.646;23.096;2022-12-22T16:00:15;11.95;;;6.30;;
61962;SDS011;47927;42.646;23.096;2022-12-22T16:02:41;16.55;;;7.63;;
61962;SDS011;47927;42.646;23.096;2022-12-22T16:05:07;31.23;;;10.85;;
61962;SDS011;47927;42.646;23.096;2022-12-22T16:07:33;24.27;;;7.65;;
61962;SDS011;47927;42.646;23.096;2022-12-22T16:10:00;18.45;;;7.65;;
61962;SDS011;47927;42.646;23.096;2022-12-22T16:12:26;17.17;;;7.10;;
61962;SDS011;47927;42.646;23.096;2022-12-22T16:14:55;16.25;;;7.00;;
61962;SDS011;47927;42.646;23.096;2022-12-22T16:17:24;12.00;;;5.47;;
61962;SDS011;47927;42.646;23.096;2022-12-22T16:19:51;10.85;;;4.90;;
61962;SDS011;47927;42.646;23.096;2022-12-22T16:22:18;8.82;;;4.30;;
61962;SDS011;47927;42.646;23.096;2022-12-22T16:24:46;8.93;;;4.70;;
61962;SDS011;47927;42.646;23.096;2022-12-22T16:27:13;8.07;;;4.43;;
61962;SDS011;47927;42.646;23.096;2022-12-22T16:29:42;12.00;;;5.28;;
61962;SDS011;47927;42.646;23.096;2022-12-22T16:32:14;20.63;;;8.30;;
61962;SDS011;47927;42.646;23.096;2022-12-22T16:34:42;28.98;;;12.05;;
61962;SDS011;47927;42.646;23.096;2022-12-22T16:37:08;23.75;;;11.15;;
61962;SDS011;47927;42.646;23.096;2022-12-22T16:39:33;23.55;;;11.90;;
61962;SDS011;47927;42.646;23.096;2022-12-22T16:41:59;18.85;;;11.63;;
61962;SDS011;47927;42.646;23.096;2022-12-22T16:44:24;17.20;;;9.10;;
61962;SDS011;47927;42.646;23.096;2022-12-22T16:46:50;18.13;;;11.07;;
61962;SDS011;47927;42.646;23.096;2022-12-22T16:49:17;13.98;;;7.60;;
61962;SDS011;47927;42.646;23.096;2022-12-22T16:51:47;12.25;;;6.55;;
61962;SDS011;47927;42.646;23.096;2022-12-22T16:54:15;18.73;;;7.47;;
61962;SDS011;47927;42.646;23.096;2022-12-22T16:56:41;14.65;;;7.38;;
61962;SDS011;47927;42.646;23.096;2022-12-22T16:59:07;15.75;;;8.30;;
61962;SDS011;47927;42.646;23.096;2022-12-22T17:01:34;13.07;;;7.20;;
61962;SDS011;47927;42.646;23.096;2022-12-22T17:04:07;13.15;;;6.72;;
61962;SDS011;47927;42.646;23.096;2022-12-22T17:06:36;14.75;;;5.75;;
61962;SDS011;47927;42.646;23.096;2022-12-22T17:09:03;13.73;;;7.68;;
61962;SDS011;47927;42.646;23.096;2022-12-22T17:11:31;14.15;;;7.20;;